Time;durP1;ratioP1;P1;durP2;ratioP2;P2;SDS_P1;SDS_P2;PMS_P1;PMS_P2;Temp;Humidity;BMP_temperature;BMP_pressure;BME280_temperature;BME280_humidity;BME280_pressure;Samples;Min_cycle;Max_cycle;Signal;HPM_P1;HPM_P2
2024/02/15 00:02:01;;;;;;;;;15.33;12.33;;;;;-144.24;100.00;79266.88;5067990;28;53383;-70
2024/02/15 00:04:27;;;;;;;;;17.00;11.67;;;;;-144.24;100.00;79173.97;5066328;27;45825;-70
2024/02/15 00:06:52;;;;;;;;;7.33;6.33;;;;;-144.24;100.00;79042.69;5073310;28;48271;-71
2024/02/15 00:09:18;;;;;;;;;16.33;13.33;;;;;-144.24;100.00;79113.38;5073249;28;45409;-70
2024/02/15 00:11:43;;;;;;;;;25.00;19.33;;;;;-144.24;100.00;78976.03;5070977;28;46509;-70
2024/02/15 00:14:09;;;;;;;;;17.00;16.67;;;;;-144.24;100.00;79153.75;5067716;28;45500;-69
2024/02/15 00:16:35;;;;;;;;;18.67;14.33;;;;;-144.24;100.00;79355.75;5050875;28;49298;-70
2024/02/15 00:19:01;;;;;;;;;22.00;19.33;;;;;-144.24;100.00;79000.28;5063204;28;45687;-71
2024/02/15 00:21:27;;;;;;;;;23.33;19.67;;;;;-144.24;100.00;79111.34;5075244;27;45826;-70
2024/02/15 00:23:55;;;;;;;;;20.33;18.67;;;;;-144.24;100.00;78566.06;5069404;28;45186;-70
2024/02/15 00:26:21;;;;;;;;;19.67;16.67;;;;;-144.24;100.00;78325.78;5070863;28;45455;-70
2024/02/15 00:28:46;;;;;;;;;18.00;16.33;;;;;-144.24;100.00;78461.06;5074366;28;45323;-70
2024/02/15 00:31:12;;;;;;;;;16.67;15.33;;;;;-144.24;100.00;78311.66;5073301;28;46635;-70
2024/02/15 00:33:38;;;;;;;;;18.00;16.00;;;;;-144.24;100.00;78226.84;5076554;28;45357;-70
2024/02/15 00:36:04;;;;;;;;;19.67;15.00;;;;;-144.24;100.00;78049.16;5076628;28;49134;-71
2024/02/15 00:38:31;;;;;;;;;16.00;16.00;;;;;-144.24;100.00;78049.16;5070935;28;45494;-72
2024/02/15 00:40:58;;;;;;;;;25.33;20.67;;;;;-144.24;100.00;77921.94;5064777;28;45777;-70
2024/02/15 00:43:24;;;;;;;;;24.00;20.67;;;;;-144.24;100.00;77774.56;5075410;28;45345;-70
2024/02/15 00:45:49;;;;;;;;;23.67;21.00;;;;;-144.24;100.00;77584.78;5067098;28;45465;-71
2024/02/15 00:48:15;;;;;;;;;29.75;24.25;;;;;-144.24;100.00;77469.69;5074319;28;47820;-70
2024/02/15 00:50:40;;;;;;;;;32.50;27.00;;;;;-144.24;100.00;77386.94;5053279;28;51214;-70
2024/02/15 00:53:05;;;;;;;;;35.25;30.50;;;;;-144.24;100.00;77114.41;5067857;28;45319;-71
2024/02/15 00:55:32;;;;;;;;;39.50;33.25;;;;;-144.24;100.00;76987.22;5072478;27;45460;-70
2024/02/15 00:57:57;;;;;;;;;40.00;32.50;;;;;-144.24;100.00;76686.47;5072523;28;45465;-69
2024/02/15 01:00:22;;;;;;;;;42.25;35.25;;;;;-144.24;100.00;76615.81;5075507;28;53498;-70
2024/02/15 01:02:49;;;;;;;;;41.25;32.50;;;;;-144.24;100.00;76375.63;5073964;28;51004;-70
2024/02/15 01:05:15;;;;;;;;;38.25;32.00;;;;;-144.24;100.00;76133.44;5069313;28;45304;-69
2024/02/15 01:07:41;;;;;;;;;40.50;32.25;;;;;-144.24;100.00;76070.88;5055806;28;45368;-70
2024/02/15 01:10:07;;;;;;;;;35.25;30.50;;;;;-144.24;100.00;75895.31;5065025;28;45514;-71
2024/02/15 01:12:33;;;;;;;;;37.00;27.75;;;;;-144.24;100.00;75701.59;5073580;28;45314;-71
2024/02/15 01:14:58;;;;;;;;;7.25;5.00;;;;;-144.24;100.00;75584.53;5070178;28;45272;-72
2024/02/15 01:17:23;;;;;;;;;36.75;32.50;;;;;-144.24;100.00;75643.06;5069932;28;45394;-71
2024/02/15 01:19:49;;;;;;;;;36.50;29.75;;;;;-144.24;100.00;75350.47;5059573;28;53834;-70
2024/02/15 01:22:14;;;;;;;;;40.75;32.50;;;;;-144.24;100.00;75374.69;5070955;28;45268;-71
2024/02/15 01:24:39;;;;;;;;;41.00;31.75;;;;;-144.24;100.00;75398.91;5072457;27;62519;-71
2024/02/15 01:27:07;;;;;;;;;41.50;32.00;;;;;-144.24;100.00;75370.66;5079198;27;45485;-70
2024/02/15 01:29:32;;;;;;;;;38.75;32.50;;;;;-144.24;100.00;75507.88;5071693;28;45715;-71
2024/02/15 01:31:58;;;;;;;;;36.25;31.25;;;;;-144.24;100.00;75669.28;5064894;28;45446;-71
2024/02/15 01:34:23;;;;;;;;;29.25;25.50;;;;;-144.24;100.00;75675.34;5075706;28;45300;-70
2024/02/15 01:36:50;;;;;;;;;34.00;30.00;;;;;-144.24;100.00;76111.25;5074091;28;46740;-71
2024/02/15 01:39:15;;;;;;;;;30.67;25.33;;;;;-144.24;100.00;76097.13;5067846;28;45742;-71
2024/02/15 01:41:47;;;;;;;;;33.25;27.50;;;;;-144.24;100.00;76157.66;5066645;28;45710;-71
2024/02/15 01:44:13;;;;;;;;;33.25;26.50;;;;;-144.24;100.00;76133.44;5072178;28;45364;-70
2024/02/15 01:46:38;;;;;;;;;28.67;23.00;;;;;-144.24;100.00;76311.06;5068538;28;45451;-69
2024/02/15 01:49:05;;;;;;;;;32.00;26.00;;;;;-144.24;100.00;76248.50;5067487;28;56818;-72
2024/02/15 01:51:31;;;;;;;;;35.00;28.33;;;;;-144.24;100.00;76284.81;5069405;27;45262;-69
2024/02/15 01:53:56;;;;;;;;;30.33;26.33;;;;;-144.24;100.00;76327.19;5066373;27;45453;-71
2024/02/15 01:56:23;;;;;;;;;27.67;26.00;;;;;-144.24;100.00;76522.97;5073434;28;45370;-70
2024/02/15 01:58:49;;;;;;;;;32.67;21.00;;;;;-144.24;100.00;76726.84;5071831;28;45762;-72
2024/02/15 02:01:14;;;;;;;;;22.67;21.33;;;;;-144.24;100.00;76841.88;5072328;28;45761;-70
2024/02/15 02:03:40;;;;;;;;;24.00;20.33;;;;;-144.24;100.00;77211.28;5053594;28;48590;-70
2024/02/15 02:06:05;;;;;;;;;28.00;20.00;;;;;-144.24;100.00;77098.25;5066782;28;45486;-70
2024/02/15 02:08:30;;;;;;;;;19.67;16.67;;;;;-144.24;100.00;77205.25;5072276;28;46313;-71
2024/02/15 02:10:57;;;;;;;;;18.33;16.00;;;;;-144.24;100.00;77154.78;5063768;28;54743;-70
2024/02/15 02:13:23;;;;;;;;;22.00;18.00;;;;;-144.24;100.00;76995.31;5055599;28;45660;-71
2024/02/15 02:15:48;;;;;;;;;23.00;16.33;;;;;-144.24;100.00;77160.81;5063390;28;45243;-70
2024/02/15 02:18:14;;;;;;;;;16.33;14.00;;;;;-144.24;100.00;77193.13;5075116;27;48513;-69
2024/02/15 02:20:39;;;;;;;;;17.33;14.00;;;;;-144.24;100.00;77308.19;5060873;28;45504;-70
2024/02/15 02:23:12;;;;;;;;;18.67;14.67;;;;;-144.24;100.00;77318.28;5069939;28;45934;-70
2024/02/15 02:25:38;;;;;;;;;13.67;13.67;;;;;-144.24;100.00;77388.94;5060574;28;45509;-71
2024/02/15 02:28:04;;;;;;;;;16.67;15.00;;;;;-144.24;100.00;77512.09;5056815;28;46338;-69
2024/02/15 02:30:29;;;;;;;;;19.33;16.00;;;;;-144.24;100.00;77582.75;5073982;28;45435;-69
2024/02/15 02:32:56;;;;;;;;;16.00;14.00;;;;;-144.24;100.00;77709.94;5052924;27;46886;-69
2024/02/15 02:35:22;;;;;;;;;16.00;16.00;;;;;-144.24;100.00;77796.75;5074693;28;45365;-70
2024/02/15 02:37:47;;;;;;;;;22.00;12.67;;;;;-144.24;100.00;77758.41;5067034;28;46382;-70
2024/02/15 02:40:13;;;;;;;;;17.33;10.00;;;;;-144.24;100.00;77681.69;5074361;28;50267;-71
2024/02/15 02:42:56;;;;;;;;;10.00;10.00;;;;;-144.24;100.00;78012.81;5071768;28;62445;-70
2024/02/15 02:45:22;;;;;;;;;15.00;12.00;;;;;-144.24;100.00;78133.94;5070363;28;45447;-71
2024/02/15 02:47:51;;;;;;;;;13.00;10.33;;;;;-144.24;100.00;78194.53;5058964;28;45613;-71
2024/02/15 02:50:17;;;;;;;;;12.67;9.00;;;;;-144.24;100.00;78424.72;5076223;27;45439;-71
2024/02/15 02:52:43;;;;;;;;;13.00;8.00;;;;;-144.24;100.00;78630.69;5068264;27;45474;-70
2024/02/15 02:55:08;;;;;;;;;10.67;9.67;;;;;-144.24;100.00;78697.34;5071831;27;45619;-70
2024/02/15 02:57:37;;;;;;;;;7.00;6.67;;;;;-144.24;100.00;78804.38;5075105;28;50612;-69
2024/02/15 03:00:07;;;;;;;;;15.00;11.33;;;;;-144.24;100.00;79178.00;5056836;28;45463;-70
2024/02/15 03:02:34;;;;;;;;;10.00;8.67;;;;;-144.24;100.00;79258.78;5063282;28;45292;-70
2024/02/15 03:05:01;;;;;;;;;10.00;8.33;;;;;-144.24;100.00;79232.53;5074313;28;45353;-71
2024/02/15 03:07:32;;;;;;;;;11.33;7.67;;;;;-144.24;100.00;79521.38;5067750;27;45746;-70
2024/02/15 03:09:58;;;;;;;;;8.67;7.33;;;;;-144.24;100.00;79656.69;5071175;28;59312;-70
2024/02/15 03:12:24;;;;;;;;;15.33;10.33;;;;;-144.24;100.00;79729.41;5075636;28;45532;-71
2024/02/15 03:14:49;;;;;;;;;9.33;9.33;;;;;-144.24;100.00;80034.44;5076275;28;45447;-70
2024/02/15 03:17:15;;;;;;;;;14.67;9.67;;;;;-144.24;100.00;80153.63;5075620;28;68340;-70
2024/02/15 03:19:41;;;;;;;;;12.00;10.67;;;;;-144.24;100.00;80220.31;5070351;28;45327;-70
2024/02/15 03:22:06;;;;;;;;;14.67;10.00;;;;;-144.24;100.00;80327.38;5075279;28;68707;-70
2024/02/15 03:24:31;;;;;;;;;16.00;9.00;;;;;-144.24;100.00;80484.97;5068415;28;64307;-70
2024/02/15 03:26:57;;;;;;;;;16.00;12.00;;;;;-144.24;100.00;80654.69;5069681;28;62175;-70
2024/02/15 03:29:22;;;;;;;;;15.67;13.00;;;;;-144.24;100.00;80779.94;5074580;28;65625;-71
2024/02/15 03:31:49;;;;;;;;;14.00;14.00;;;;;-144.24;100.00;81171.94;5050717;28;45234;-71
2024/02/15 03:34:15;;;;;;;;;17.00;14.00;;;;;-144.24;100.00;81270.97;5072874;28;45301;-70
2024/02/15 03:36:41;;;;;;;;;16.33;15.00;;;;;-144.24;100.00;81527.59;5075974;28;46877;-70
2024/02/15 03:39:08;;;;;;;;;21.00;15.67;;;;;-144.24;100.00;81568.03;5075450;28;45420;-70
2024/02/15 03:41:33;;;;;;;;;24.67;17.33;;;;;-144.24;100.00;81644.81;5074095;28;45438;-70
2024/02/15 03:43:59;;;;;;;;;21.00;17.67;;;;;-144.24;100.00;81772.13;5050849;28;45524;-70
2024/02/15 03:46:25;;;;;;;;;20.33;15.00;;;;;-144.24;100.00;82119.75;5071178;28;45691;-71
2024/02/15 03:48:51;;;;;;;;;15.33;15.00;;;;;-144.24;100.00;82251.16;5073060;28;65280;-70
2024/02/15 03:51:20;;;;;;;;;14.00;14.00;;;;;-144.24;100.00;82360.28;5065008;28;58039;-70
2024/02/15 03:53:45;;;;;;;;;7.33;6.00;;;;;-144.24;100.00;82473.50;5055359;28;45514;-71
2024/02/15 03:56:11;;;;;;;;;17.67;16.00;;;;;-144.24;100.00;82627.13;5061000;28;45558;-70
2024/02/15 03:58:37;;;;;;;;;20.00;16.00;;;;;-144.24;100.00;82505.84;5073424;28;66827;-71
2024/02/15 04:01:06;;;;;;;;;16.33;16.00;;;;;-144.24;100.00;82340.06;5074231;28;45430;-70
2024/02/15 04:03:32;;;;;;;;;17.67;16.00;;;;;-144.24;100.00;82560.41;5075535;28;45586;-71
2024/02/15 04:05:57;;;;;;;;;17.67;14.67;;;;;-144.24;100.00;82716.06;5078971;28;46311;-69
2024/02/15 04:08:23;;;;;;;;;17.00;16.00;;;;;-144.24;100.00;82853.53;5076002;28;45455;-72
2024/02/15 04:10:49;;;;;;;;;14.67;14.67;;;;;-144.24;100.00;82829.25;5069465;28;45229;-70
2024/02/15 04:13:14;;;;;;;;;22.33;19.67;;;;;-144.24;100.00;82859.59;5075738;28;45537;-70
2024/02/15 04:15:39;;;;;;;;;24.33;19.33;;;;;-144.24;100.00;82877.78;5069645;28;69169;-70
2024/02/15 04:18:05;;;;;;;;;23.00;19.25;;;;;-144.24;100.00;83120.38;5077186;28;65464;-71
2024/02/15 04:20:31;;;;;;;;;25.33;22.33;;;;;-144.24;100.00;83172.94;5078847;28;45301;-70
2024/02/15 04:22:57;;;;;;;;;21.00;21.00;;;;;-144.24;100.00;83007.16;5076995;28;65278;-71
2024/02/15 04:25:27;;;;;;;;;24.33;21.00;;;;;-144.24;100.00;83209.31;5077882;28;45474;-70
2024/02/15 04:27:53;;;;;;;;;18.67;17.00;;;;;-144.24;100.00;83344.78;5075232;28;45423;-70
2024/02/15 04:30:19;;;;;;;;;17.33;13.67;;;;;-144.24;100.00;83265.94;5068708;28;45477;-69
2024/02/15 04:32:44;;;;;;;;;14.33;10.67;;;;;-144.24;100.00;83648.06;5074698;28;45280;-70
2024/02/15 04:35:10;;;;;;;;;18.67;14.67;;;;;-144.24;100.00;83815.91;5077425;28;46328;-70
2024/02/15 04:37:37;;;;;;;;;9.33;6.67;;;;;-144.24;100.00;83759.28;5070689;28;45530;-70
2024/02/15 04:40:09;;;;;;;;;9.67;7.33;;;;;-144.24;100.00;83755.22;5076905;28;45448;-70
2024/02/15 04:42:37;;;;;;;;;7.00;7.00;;;;;-144.24;100.00;83716.81;5070484;28;46172;-70
2024/02/15 04:45:03;;;;;;;;;10.33;8.00;;;;;-144.24;100.00;83172.94;5075878;28;46601;-70
2024/02/15 04:47:29;;;;;;;;;11.00;9.00;;;;;-144.24;100.00;83193.16;5078016;28;45472;-70
2024/02/15 04:49:55;;;;;;;;;10.00;6.00;;;;;-144.24;100.00;83470.13;5076585;28;45368;-71
2024/02/15 04:52:23;;;;;;;;;10.00;7.00;;;;;-144.24;100.00;83500.47;5072904;28;62074;-71
2024/02/15 04:54:48;;;;;;;;;6.33;5.00;;;;;-144.24;100.00;83500.47;5074347;28;45865;-70
2024/02/15 04:57:14;;;;;;;;;6.00;5.67;;;;;-144.24;100.00;83599.53;5076832;28;50199;-70
2024/02/15 04:59:39;;;;;;;;;3.33;3.00;;;;;-144.24;100.00;83787.59;5077480;28;45177;-71
2024/02/15 05:02:05;;;;;;;;;7.00;7.00;;;;;-144.24;100.00;83919.03;5076921;28;45494;-70
2024/02/15 05:04:30;;;;;;;;;7.67;5.00;;;;;-144.24;100.00;83795.66;5077563;28;64123;-71
2024/02/15 05:06:56;;;;;;;;;5.33;4.00;;;;;-144.24;100.00;83832.06;5051594;28;58384;-72
2024/02/15 05:09:22;;;;;;;;;5.67;2.67;;;;;-144.24;100.00;84181.91;5069980;28;45438;-71
2024/02/15 05:11:48;;;;;;;;;5.67;5.67;;;;;-144.24;100.00;84295.16;5068885;28;46191;-70
2024/02/15 05:14:18;;;;;;;;;5.67;5.33;;;;;-144.24;100.00;84369.97;5074284;28;45649;-73
2024/02/15 05:16:48;;;;;;;;;8.67;6.67;;;;;-144.24;100.00;84829.06;5077739;28;45294;-70
2024/02/15 05:19:16;;;;;;;;;4.33;4.33;;;;;-144.24;100.00;85490.50;5075699;28;45428;-72
2024/02/15 05:21:41;;;;;;;;;4.00;4.00;;;;;-144.24;100.00;86101.44;5078043;28;45431;-71
2024/02/15 05:24:06;;;;;;;;;3.00;3.00;;;;;-144.24;100.00;86433.25;5072123;28;73775;-69
2024/02/15 05:26:32;;;;;;;;;4.67;4.33;;;;;-144.24;100.00;86437.31;5073917;28;59345;-72
2024/02/15 05:28:57;;;;;;;;;7.33;5.33;;;;;-144.24;100.00;86965.44;5078184;28;45446;-73
2024/02/15 05:31:25;;;;;;;;;4.33;4.33;;;;;-144.24;100.00;87246.72;5072537;28;67194;-73
2024/02/15 05:33:52;;;;;;;;;3.00;3.00;;;;;-144.24;100.00;87475.41;5041850;28;47641;-73
2024/02/15 05:36:22;;;;;;;;;6.33;5.00;;;;;-144.24;100.00;87673.75;5073985;28;45454;-71
2024/02/15 05:38:51;;;;;;;;;3.67;3.67;;;;;-144.24;100.00;87655.53;5075583;28;45259;-71
2024/02/15 05:41:16;;;;;;;;;5.00;4.00;;;;;-144.24;100.00;87659.59;5077847;28;45391;-72
2024/02/15 05:43:42;;;;;;;;;7.67;4.00;;;;;-144.24;100.00;87679.84;5058980;28;46858;-71
2024/02/15 05:46:08;;;;;;;;;4.33;3.67;;;;;-144.24;100.00;87625.19;5076429;28;55990;-71
2024/02/15 05:48:35;;;;;;;;;5.00;4.00;;;;;-144.24;100.00;87659.59;5073513;28;45335;-71
2024/02/15 05:51:04;;;;;;;;;5.00;4.00;;;;;-144.24;100.00;87730.44;5073632;28;45629;-71
2024/02/15 05:53:29;;;;;;;;;5.00;4.00;;;;;-144.24;100.00;87904.50;5071239;28;46634;-71
2024/02/15 05:55:57;;;;;;;;;5.33;5.00;;;;;-144.24;100.00;87629.25;5068458;28;45451;-71
2024/02/15 05:58:23;;;;;;;;;6.00;4.00;;;;;-144.24;100.00;87742.56;5077687;28;45253;-70
2024/02/15 06:00:51;;;;;;;;;4.33;4.00;;;;;-144.24;100.00;87752.69;5070393;28;45398;-71
2024/02/15 06:03:17;;;;;;;;;4.00;4.00;;;;;-144.24;100.00;87872.13;5068346;28;47355;-71
2024/02/15 06:05:43;;;;;;;;;4.67;4.00;;;;;-144.24;100.00;87995.59;5053080;28;45361;-71
2024/02/15 06:08:09;;;;;;;;;6.33;4.67;;;;;-144.24;100.00;87928.78;5072224;28;45290;-72
2024/02/15 06:10:34;;;;;;;;;7.00;4.67;;;;;-144.24;100.00;87855.94;5072207;28;45571;-73
2024/02/15 06:12:59;;;;;;;;;6.00;4.67;;;;;-144.24;100.00;87872.13;5067470;28;45729;-71
2024/02/15 06:15:26;;;;;;;;;5.00;4.00;;;;;-144.24;100.00;87983.44;5076556;28;58432;-72
2024/02/15 06:17:52;;;;;;;;;5.00;5.00;;;;;-144.24;100.00;87876.16;5077492;28;45418;-72
2024/02/15 06:20:17;;;;;;;;;5.00;3.67;;;;;-144.24;100.00;87898.44;5075440;28;45265;-73
2024/02/15 06:22:44;;;;;;;;;5.67;4.00;;;;;-144.24;100.00;87742.56;5075029;28;46430;-72
2024/02/15 06:25:13;;;;;;;;;6.00;4.00;;;;;-144.24;100.00;87803.31;5035679;28;45329;-72
2024/02/15 06:27:42;;;;;;;;;6.00;6.00;;;;;-144.24;100.00;87706.16;5058224;28;45268;-71
2024/02/15 06:41:08;;;;;;;;;3.67;3.00;;;;;-144.24;100.00;86975.56;5075159;28;45624;-71
2024/02/15 06:43:34;;;;;;;;;4.67;4.67;;;;;-144.24;100.00;86979.59;5071582;28;46430;-72
2024/02/15 06:46:01;;;;;;;;;5.33;4.00;;;;;-144.24;100.00;86854.13;5073849;28;45477;-73
2024/02/15 06:48:26;;;;;;;;;3.00;3.00;;;;;-144.24;100.00;87094.94;5077338;28;45204;-72
2024/02/15 06:50:52;;;;;;;;;5.33;4.33;;;;;-144.24;100.00;86670.00;5052177;28;46957;-71
2024/02/15 06:53:20;;;;;;;;;5.67;5.67;;;;;-144.24;100.00;86680.13;5068592;28;46377;-71
2024/02/15 06:55:46;;;;;;;;;9.33;5.00;;;;;-144.24;100.00;86566.81;5074516;28;45169;-71
2024/02/15 06:58:13;;;;;;;;;4.67;4.00;;;;;-144.24;100.00;86526.34;5074772;28;45561;-71
2024/02/15 07:00:40;;;;;;;;;6.00;6.00;;;;;-144.24;100.00;86576.91;5070799;28;45358;-71
2024/02/15 07:03:07;;;;;;;;;5.00;5.00;;;;;-144.24;100.00;86619.41;5056355;28;45968;-72
2024/02/15 07:05:33;;;;;;;;;7.33;6.00;;;;;-144.24;100.00;86538.47;5071949;28;45370;-72
2024/02/15 07:07:59;;;;;;;;;7.67;4.67;;;;;-144.24;100.00;86564.78;5067750;28;45585;-71
2024/02/15 07:10:24;;;;;;;;;5.00;3.67;;;;;-144.24;100.00;86708.44;5075696;28;45429;-71
2024/02/15 07:12:49;;;;;;;;;1.67;1.00;;;;;-144.24;100.00;86789.38;5068848;28;45866;-70
2024/02/15 07:15:16;;;;;;;;;5.67;5.00;;;;;-144.24;100.00;86611.31;5071316;28;45324;-71
2024/02/15 07:17:42;;;;;;;;;9.33;5.33;;;;;-144.24;100.00;86835.94;5073131;28;45446;-71
2024/02/15 07:20:10;;;;;;;;;5.00;4.33;;;;;-144.24;100.00;86862.22;5053115;28;63034;-71
2024/02/15 07:22:37;;;;;;;;;5.00;5.00;;;;;-144.24;100.00;86910.78;5076155;28;46345;-71
2024/02/15 07:25:03;;;;;;;;;8.33;4.67;;;;;-144.24;100.00;86732.72;5071808;28;45420;-71
2024/02/15 07:27:28;;;;;;;;;6.67;6.67;;;;;-144.24;100.00;86906.75;5075589;28;45422;-72
2024/02/15 07:29:54;;;;;;;;;7.33;5.00;;;;;-144.24;100.00;86844.03;5072427;28;60134;-72
2024/02/15 07:32:19;;;;;;;;;9.00;5.00;;;;;-144.24;100.00;86880.44;5075226;28;46408;-71
2024/02/15 07:34:47;;;;;;;;;5.00;4.00;;;;;-144.24;100.00;86759.03;5074622;28;45517;-71
2024/02/15 07:37:12;;;;;;;;;6.67;5.67;;;;;-144.24;100.00;86714.50;5055234;28;45692;-71
2024/02/15 07:39:38;;;;;;;;;5.00;5.00;;;;;-144.24;100.00;86765.09;5077619;28;45743;-72
2024/02/15 07:42:08;;;;;;;;;7.33;5.33;;;;;-144.24;100.00;86686.19;5078420;28;72634;-70
2024/02/15 07:44:36;;;;;;;;;6.00;4.00;;;;;-144.24;100.00;86937.09;5051739;28;45575;-71
2024/02/15 07:47:02;;;;;;;;;5.00;5.00;;;;;-144.24;100.00;86941.16;5068052;28;45529;-72
2024/02/15 07:49:27;;;;;;;;;5.33;5.00;;;;;-144.24;100.00;87167.81;5055871;28;45551;-71
2024/02/15 07:51:52;;;;;;;;;6.00;4.00;;;;;-144.24;100.00;87250.78;5072124;28;46332;-72
2024/02/15 07:54:21;;;;;;;;;5.00;5.00;;;;;-144.24;100.00;87109.13;5054068;28;45431;-70
2024/02/15 07:56:48;;;;;;;;;10.00;6.33;;;;;-144.24;100.00;86914.84;5061183;28;45399;-71
2024/02/15 07:59:14;;;;;;;;;4.00;4.00;;;;;-144.24;100.00;86746.88;5058135;28;45508;-71
2024/02/15 08:01:43;;;;;;;;;5.00;4.33;;;;;-144.24;100.00;86544.53;5079004;28;46760;-71
2024/02/15 08:04:08;;;;;;;;;16.33;8.67;;;;;-144.24;100.00;86481.81;5077069;28;45539;-72
2024/02/15 08:06:36;;;;;;;;;10.33;8.67;;;;;-144.24;100.00;86398.84;5079265;28;45490;-71
2024/02/15 08:09:04;;;;;;;;;11.00;5.00;;;;;-144.24;100.00;86518.25;5060799;28;45946;-73
2024/02/15 08:11:30;;;;;;;;;5.00;4.33;;;;;-144.24;100.00;86651.78;5073260;28;46657;-73
2024/02/15 08:13:58;;;;;;;;;8.33;4.67;;;;;-144.24;100.00;86538.47;5078259;28;45472;-70
2024/02/15 08:16:24;;;;;;;;;9.00;7.33;;;;;-144.24;100.00;86390.78;5077861;27;45426;-72
2024/02/15 08:18:54;;;;;;;;;6.33;6.33;;;;;-144.24;100.00;86291.63;5079038;28;45589;-70
2024/02/15 08:21:26;;;;;;;;;15.00;6.67;;;;;-144.24;100.00;86137.84;5072830;28;47078;-69
2024/02/15 08:23:51;;;;;;;;;9.00;6.67;;;;;-144.24;100.00;86356.38;5073098;28;45356;-69
2024/02/15 08:26:17;;;;;;;;;7.33;6.00;;;;;-144.24;100.00;86477.78;5077585;28;45287;-69
2024/02/15 08:28:42;;;;;;;;;7.00;6.00;;;;;-144.24;100.00;86332.09;5052277;28;65899;-70
2024/02/15 08:31:09;;;;;;;;;5.00;5.00;;;;;-144.24;100.00;86299.72;5058916;28;46705;-69
2024/02/15 08:33:36;;;;;;;;;6.33;5.00;;;;;-144.24;100.00;86334.13;5061702;28;45439;-69
2024/02/15 08:36:02;;;;;;;;;7.33;6.00;;;;;-144.24;100.00;86311.84;5072233;28;46520;-70
2024/02/15 08:38:27;;;;;;;;;9.00;7.67;;;;;-144.24;100.00;86303.75;5072935;28;45493;-70
2024/02/15 08:40:53;;;;;;;;;6.00;6.00;;;;;-144.24;100.00;86427.19;5070147;27;45539;-70
2024/02/15 08:43:18;;;;;;;;;7.33;7.33;;;;;-144.24;100.00;86392.78;5077717;28;61735;-69
2024/02/15 08:45:43;;;;;;;;;6.00;6.00;;;;;-144.24;100.00;86473.72;5071416;28;45935;-69
2024/02/15 08:48:09;;;;;;;;;9.67;7.00;;;;;-144.24;100.00;86469.69;5064881;28;45447;-70
2024/02/15 08:50:34;;;;;;;;;15.00;10.33;;;;;-144.24;100.00;86475.75;5072818;28;46306;-70
2024/02/15 08:53:01;;;;;;;;;10.00;7.33;;;;;-144.24;100.00;86690.22;5073751;28;45399;-70
2024/02/15 08:55:27;;;;;;;;;7.33;7.33;;;;;-144.24;100.00;86516.22;5071579;28;45463;-69
2024/02/15 08:57:54;;;;;;;;;7.33;7.33;;;;;-144.24;100.00;86439.31;5076663;28;46239;-69
2024/02/15 09:00:20;;;;;;;;;7.00;7.00;;;;;-144.24;100.00;86550.63;5069246;28;46547;-70
2024/02/15 09:02:46;;;;;;;;;9.00;9.00;;;;;-144.24;100.00;86471.69;5066770;27;45482;-70
2024/02/15 09:05:15;;;;;;;;;10.67;9.00;;;;;-144.24;100.00;86530.38;5069052;27;45415;-70
2024/02/15 09:07:42;;;;;;;;;10.33;6.33;;;;;-144.24;100.00;86429.22;5073084;27;45420;-69
2024/02/15 09:10:11;;;;;;;;;11.67;9.00;;;;;-144.24;100.00;86366.50;5067788;27;45830;-69
2024/02/15 09:12:42;;;;;;;;;10.00;10.00;;;;;-144.24;100.00;86524.31;5072685;27;45549;-69
2024/02/15 09:15:08;;;;;;;;;12.33;9.00;;;;;-144.24;100.00;86370.53;5074804;28;45482;-69
2024/02/15 09:17:40;;;;;;;;;9.67;7.00;;;;;-144.24;100.00;86056.94;5072931;27;45558;-69
2024/02/15 09:20:15;;;;;;;;;7.33;6.00;;;;;-144.24;100.00;85878.91;5076316;27;45652;-69
2024/02/15 09:22:41;;;;;;;;;10.33;7.33;;;;;-144.24;100.00;85617.94;5075216;28;45601;-69
2024/02/15 09:25:08;;;;;;;;;10.67;6.67;;;;;-144.24;100.00;85342.81;5075959;27;46410;-70
2024/02/15 09:27:33;;;;;;;;;14.00;9.67;;;;;-144.24;100.00;85243.69;5070887;27;45475;-69
2024/02/15 09:29:59;;;;;;;;;10.00;7.00;;;;;-144.24;100.00;84740.06;5075496;28;46293;-70
2024/02/15 09:32:24;;;;;;;;;9.33;9.33;;;;;-144.24;100.00;84592.44;5075206;28;71853;-69
2024/02/15 09:34:49;;;;;;;;;6.33;6.33;;;;;-144.24;100.00;84212.22;5071628;27;45609;-69
2024/02/15 09:37:15;;;;;;;;;13.33;6.67;;;;;-144.24;100.00;83900.81;5075092;28;59572;-70
2024/02/15 09:39:40;;;;;;;;;10.67;7.00;;;;;-144.24;100.00;83356.91;5062933;28;46430;-69
2024/02/15 09:42:06;;;;;;;;;9.67;6.67;;;;;-144.24;100.00;83055.69;5070545;28;45373;-69
2024/02/15 09:44:31;;;;;;;;;6.00;6.00;;;;;-144.24;100.00;82855.53;5068534;27;45336;-69
2024/02/15 09:47:08;;;;;;;;;6.00;6.00;;;;;-144.24;100.00;82756.50;5074184;27;45569;-69
2024/02/15 09:49:39;;;;;;;;;10.33;8.00;;;;;-144.24;100.00;82716.06;5069362;27;46607;-69
2024/02/15 09:52:06;;;;;;;;;7.00;7.00;;;;;-144.24;100.00;82655.41;5055955;28;45482;-69
2024/02/15 09:54:32;;;;;;;;;5.00;2.33;;;;;-144.24;100.00;82602.84;5072708;28;45360;-69
2024/02/15 09:57:01;;;;;;;;;9.00;6.33;;;;;-144.24;100.00;82677.66;5043304;28;58657;-69
2024/02/15 09:59:26;;;;;;;;;7.00;6.00;;;;;-144.24;100.00;82855.53;5053906;28;45514;-69
2024/02/15 10:01:52;;;;;;;;;10.33;6.67;;;;;-144.24;100.00;83272.00;5044975;28;63541;-69
2024/02/15 10:04:17;;;;;;;;;11.33;7.67;;;;;-144.24;100.00;83433.75;5044101;28;63118;-69
2024/02/15 10:06:43;;;;;;;;;8.67;8.67;;;;;-144.24;100.00;83969.56;5052743;28;45385;-69
2024/02/15 10:09:30;;;;;;;;;6.33;6.33;;;;;-144.24;100.00;84903.91;5053096;28;46644;-69
2024/02/15 10:11:57;;;;;;;;;8.00;6.67;;;;;-144.24;100.00;85583.53;5050752;28;45468;-69
2024/02/15 10:14:24;;;;;;;;;6.67;5.00;;;;;-144.24;100.00;86562.75;5051989;28;45414;-69
2024/02/15 10:16:50;;;;;;;;;6.67;4.67;;;;;-144.24;100.00;87443.03;5053080;28;45311;-69
2024/02/15 10:19:17;;;;;;;;;7.00;6.00;;;;;-144.24;100.00;88566.44;5052655;28;45732;-69
2024/02/15 10:21:42;;;;;;;;;5.00;5.00;;;;;-144.24;100.00;89862.28;5051277;28;45293;-70
2024/02/15 10:24:08;;;;;;;;;6.00;5.00;;;;;-144.24;100.00;91057.25;5051042;28;66658;-69
2024/02/15 10:26:35;;;;;;;;;5.33;5.33;;;;;-144.24;100.00;92676.06;5050768;28;45366;-69
2024/02/15 10:29:11;;;;;;;;;9.67;6.67;;;;;-144.24;100.00;93638.78;5059614;28;47041;-69
2024/02/15 10:31:41;;;;;;;;;7.33;6.00;;;;;-144.24;100.00;94605.75;5054755;28;45633;-69
2024/02/15 10:34:07;;;;;;;;;7.00;7.00;;;;;-144.24;100.00;95777.78;5036462;28;45563;-70
2024/02/15 10:36:33;;;;;;;;;5.67;5.67;;;;;-144.24;100.00;97080.00;5049670;28;45401;-69
2024/02/15 10:39:17;;;;;;;;;6.67;6.67;;;;;-144.24;100.00;98277.13;5045419;28;45764;-70
2024/02/15 10:41:52;;;;;;;;;6.67;6.67;;;;;-144.24;100.00;99369.03;5046066;28;45644;-70
2024/02/15 10:44:19;;;;;;;;;11.00;8.00;;;;;-144.24;100.00;99870.41;5049695;28;45557;-68
2024/02/15 10:46:47;;;;;;;;;10.67;8.67;;;;;-144.24;100.00;100526.19;5052809;28;45523;-69
2024/02/15 10:49:14;;;;;;;;;7.00;3.00;;;;;-144.24;100.00;101165.81;5052178;28;46953;-69
2024/02/15 10:51:43;;;;;;;;;5.67;5.67;;;;;-144.24;100.00;101740.56;5051437;28;45498;-70
2024/02/15 10:54:13;;;;;;;;;8.67;5.00;;;;;-144.24;100.00;101978.22;5054129;28;45382;-71
2024/02/15 10:56:44;;;;;;;;;8.67;7.67;;;;;-144.24;100.00;102892.31;5076703;22;46542;-69
2024/02/15 10:59:18;;;;;;;;;6.33;6.33;;;;;-144.24;100.00;104174.47;5073775;28;45662;-70
2024/02/15 11:01:46;;;;;;;;;8.67;6.00;;;;;-144.24;100.00;104938.66;5070767;27;45611;-70
2024/02/15 11:04:15;;;;;;;;;7.00;5.33;;;;;-144.24;100.00;105637.94;5073685;27;45454;-70
2024/02/15 11:06:43;;;;;;;;;6.00;4.33;;;;;-144.24;100.00;106101.50;5072368;28;45561;-69
2024/02/15 11:09:11;;;;;;;;;4.67;4.67;;;;;-144.24;100.00;106839.63;5073844;27;47252;-69
2024/02/15 11:11:40;;;;;;;;;15.67;12.00;;;;;-144.24;100.00;107675.50;5070670;28;45676;-69